CheckWX is a tool to help pilots better visualize weather data.  It is not intended as a substitute for an official pre-flight weather briefing.

10:46:44 UTC

KSMO TAF
Santa Monica Municipal Airport
Santa Monica, California, USA
KSMO 180531Z 1806/1906 VRB03KT P6SM SCT250 FM181800 24009KT P6SM SCT250 FM190300 VRB03KT P6SM SCT250

Apr-18@
06:00 UTC

Apr-18 @ 06:00 UTC

Apr-18@
18:00 UTC

Apr-18 @ 18:00 UTC

KSMO 180531Z 1806/1906 VRB03KT P6SM SCT250
Wind
  • Variable at 3 KTS
Cloud Levels
  • Scattered at 25,000' AGL

Apr-18@
18:00 UTC

Apr-18 @ 18:00 UTC

Apr-19@
03:00 UTC

Apr-19 @ 03:00 UTC

FM181800 24009KT P6SM SCT250

From

From Standard forecast or significant change

Wind
  • 240° at 9 KTS
Cloud Levels
  • Scattered at 25,000' AGL

Apr-19@
03:00 UTC

Apr-19 @ 03:00 UTC

Apr-19@
06:00 UTC

Apr-19 @ 06:00 UTC

FM190300 VRB03KT P6SM SCT250

From

From Standard forecast or significant change

Wind
  • Variable at 3 KTS
Cloud Levels
  • Scattered at 25,000' AGL